createdAt,value
2023-03-03T00:00:09.183Z,1.1
2023-03-03T00:01:12.902Z,1
2023-03-03T00:02:16.322Z,1
2023-03-03T00:03:20.043Z,1
2023-03-03T00:04:23.579Z,1
2023-03-03T00:05:27.401Z,1
2023-03-03T00:06:30.415Z,1
2023-03-03T00:07:33.850Z,1
2023-03-03T00:08:37.109Z,1
2023-03-03T00:09:40.811Z,1
2023-03-03T00:10:43.905Z,1
2023-03-03T00:11:47.170Z,1
2023-03-03T00:12:49.985Z,1
2023-03-03T00:13:52.889Z,0.9
2023-03-03T00:14:56.298Z,1
2023-03-03T00:15:59.107Z,0.9
2023-03-03T00:17:02.459Z,0.9
2023-03-03T00:18:05.447Z,0.9
2023-03-03T00:19:08.173Z,0.9
2023-03-03T00:20:11.377Z,0.9
2023-03-03T00:21:15.481Z,0.9
2023-03-03T00:22:18.223Z,0.9
2023-03-03T00:23:21.598Z,0.9
2023-03-03T00:24:24.953Z,0.9
2023-03-03T00:25:28.277Z,0.9
2023-03-03T00:26:32.011Z,0.9
2023-03-03T00:27:35.129Z,0.9
2023-03-03T00:28:38.511Z,0.9
2023-03-03T00:29:41.983Z,0.9
2023-03-03T00:30:45.699Z,0.9
2023-03-03T00:31:48.868Z,0.9
2023-03-03T00:32:52.709Z,0.9
2023-03-03T00:33:55.633Z,0.9
2023-03-03T00:34:59.011Z,0.9
2023-03-03T00:36:02.706Z,0.9
2023-03-03T00:37:06.564Z,1
2023-03-03T00:38:09.956Z,1
2023-03-03T00:39:13.055Z,1
2023-03-03T00:40:16.749Z,1.1
2023-03-03T00:41:18.909Z,1.1
2023-03-03T00:42:22.639Z,1.1
2023-03-03T00:43:26.662Z,1.1
2023-03-03T00:44:30.054Z,1.1
2023-03-03T00:45:33.581Z,1.1
2023-03-03T00:46:37.401Z,1.1
2023-03-03T00:47:41.476Z,1.2
2023-03-03T00:48:44.895Z,1.2
2023-03-03T00:49:47.326Z,1.2
2023-03-03T00:50:49.762Z,1.2
2023-03-03T00:51:52.876Z,1.2
2023-03-03T00:52:56.967Z,1.2
2023-03-03T00:54:00.318Z,1.2
2023-03-03T00:55:02.579Z,1.3
2023-03-03T00:56:05.105Z,1.3
2023-03-03T00:57:08.548Z,1.3
2023-03-03T00:58:12.096Z,1.3
2023-03-03T00:59:14.896Z,1.3
2023-03-03T01:00:17.985Z,1.3
2023-03-03T01:01:21.442Z,1.4
2023-03-03T01:02:25.198Z,1.4
2023-03-03T01:03:28.713Z,1.4
2023-03-03T01:04:32.202Z,1.4
2023-03-03T01:05:34.972Z,1.5
2023-03-03T01:06:38.007Z,1.5
2023-03-03T01:07:41.861Z,1.5
2023-03-03T01:08:46.017Z,1.5
2023-03-03T01:09:49.020Z,1.5
2023-03-03T01:10:52.528Z,1.5
2023-03-03T01:11:55.640Z,1.5
2023-03-03T01:12:58.697Z,1.5
2023-03-03T01:14:02.076Z,1.5
2023-03-03T01:15:05.575Z,1.5
2023-03-03T01:16:08.949Z,1.5
2023-03-03T01:17:12.365Z,1.5
2023-03-03T01:18:15.166Z,1.5
2023-03-03T01:19:19.300Z,1.5
2023-03-03T01:20:22.031Z,1.5
2023-03-03T01:21:24.483Z,1.6
2023-03-03T01:22:27.272Z,1.6
2023-03-03T01:23:30.406Z,1.6
2023-03-03T01:24:35.062Z,1.5
2023-03-03T01:25:37.771Z,1.6
2023-03-03T01:26:40.785Z,1.6
2023-03-03T01:27:43.785Z,1.6
2023-03-03T01:28:46.313Z,1.6
2023-03-03T01:29:49.027Z,1.6
2023-03-03T01:30:52.143Z,1.6
2023-03-03T01:31:55.308Z,1.7
2023-03-03T01:32:58.467Z,1.7
2023-03-03T01:34:00.927Z,1.7
2023-03-03T01:35:04.027Z,1.7
2023-03-03T01:36:06.833Z,1.7
2023-03-03T01:37:09.813Z,1.7
2023-03-03T01:38:12.873Z,1.6
2023-03-03T01:39:16.147Z,1.6
2023-03-03T01:40:19.967Z,1.7
2023-03-03T01:41:23.241Z,1.7
2023-03-03T01:42:26.614Z,1.7
2023-03-03T01:43:29.942Z,1.7
2023-03-03T01:44:34.031Z,1.7
2023-03-03T01:45:37.023Z,1.8
2023-03-03T01:46:40.000Z,1.8
2023-03-03T01:47:42.908Z,1.8
2023-03-03T01:48:45.695Z,1.8
2023-03-03T01:49:48.631Z,1.9
2023-03-03T01:50:51.649Z,1.9
2023-03-03T01:51:54.435Z,1.9
2023-03-03T01:52:57.236Z,1.9
2023-03-03T01:54:00.627Z,1.9
2023-03-03T01:55:04.191Z,1.9
2023-03-03T01:56:07.997Z,1.9
2023-03-03T01:57:11.276Z,1.9
2023-03-03T01:58:14.740Z,1.9
2023-03-03T01:59:17.549Z,1.9
2023-03-03T02:00:20.992Z,1.9
2023-03-03T02:01:24.525Z,1.9
2023-03-03T02:02:28.016Z,1.9
2023-03-03T02:03:31.416Z,1.9
2023-03-03T02:04:34.159Z,1.9
2023-03-03T02:05:36.908Z,1.9
2023-03-03T02:06:39.620Z,1.8
2023-03-03T02:07:43.088Z,1.8
2023-03-03T02:08:46.120Z,1.8
2023-03-03T02:09:49.298Z,1.8
2023-03-03T02:10:52.766Z,1.9
2023-03-03T02:11:56.971Z,1.9
2023-03-03T02:13:00.144Z,1.9
2023-03-03T02:14:03.548Z,1.9
2023-03-03T02:15:07.297Z,1.8
2023-03-03T02:16:11.097Z,1.8
2023-03-03T02:17:14.880Z,1.9
2023-03-03T02:18:17.979Z,1.9
2023-03-03T02:19:21.090Z,1.9
2023-03-03T02:20:23.883Z,1.9
2023-03-03T02:21:26.680Z,1.9
2023-03-03T02:22:30.392Z,1.9
2023-03-03T02:23:34.156Z,1.9
2023-03-03T02:24:37.022Z,2
2023-03-03T02:25:40.206Z,1.9
2023-03-03T02:26:43.387Z,2
2023-03-03T02:27:47.473Z,2
2023-03-03T02:28:50.480Z,2
2023-03-03T02:29:53.548Z,2
2023-03-03T02:30:56.611Z,2
2023-03-03T02:32:00.714Z,2
2023-03-03T02:33:03.793Z,2
2023-03-03T02:34:06.440Z,2
2023-03-03T02:35:08.877Z,2.1
2023-03-03T02:36:12.335Z,2.1
2023-03-03T02:37:15.517Z,2.1
2023-03-03T02:38:19.192Z,2.1
2023-03-03T02:39:22.215Z,2.1
2023-03-03T02:40:25.354Z,2.1
2023-03-03T02:41:28.080Z,2.1
2023-03-03T02:42:31.915Z,2.2
2023-03-03T02:43:35.413Z,2.2
2023-03-03T02:44:38.865Z,2.1
2023-03-03T02:45:42.848Z,2.1
2023-03-03T02:46:45.826Z,2
2023-03-03T02:47:48.673Z,2
2023-03-03T02:48:52.306Z,2
2023-03-03T02:49:55.387Z,1.9
2023-03-03T02:50:57.868Z,1.9
2023-03-03T02:52:01.213Z,1.9
2023-03-03T02:53:04.272Z,1.9
2023-03-03T02:54:07.432Z,1.9
2023-03-03T02:55:10.233Z,1.9
2023-03-03T02:56:13.693Z,1.9
2023-03-03T02:57:17.091Z,1.9
2023-03-03T02:58:20.521Z,1.9
2023-03-03T02:59:24.593Z,1.8
2023-03-03T03:00:28.022Z,1.8
2023-03-03T03:01:30.244Z,1.8
2023-03-03T03:02:33.251Z,1.8
2023-03-03T03:03:36.972Z,1.8
2023-03-03T03:04:40.505Z,1.8
2023-03-03T03:05:42.893Z,1.9
2023-03-03T03:06:46.297Z,1.9
2023-03-03T03:07:49.159Z,1.9
2023-03-03T03:08:52.905Z,1.9
2023-03-03T03:09:55.698Z,1.9
2023-03-03T03:10:59.007Z,1.9
2023-03-03T03:12:01.802Z,1.9
2023-03-03T03:13:04.907Z,1.9
2023-03-03T03:14:08.051Z,1.9
2023-03-03T03:15:11.590Z,1.9
2023-03-03T03:16:15.864Z,1.9
2023-03-03T03:17:18.912Z,1.9
2023-03-03T03:18:21.741Z,1.9
2023-03-03T03:19:24.869Z,1.9
2023-03-03T03:20:27.471Z,1.9
2023-03-03T03:21:30.842Z,1.9
2023-03-03T03:22:34.254Z,1.9
2023-03-03T03:23:37.695Z,1.9
2023-03-03T03:24:41.035Z,1.9
2023-03-03T03:25:43.852Z,1.9
2023-03-03T03:26:47.073Z,1.9
2023-03-03T03:27:50.804Z,1.9
2023-03-03T03:28:54.319Z,1.9
2023-03-03T03:29:57.445Z,1.9
2023-03-03T03:31:01.976Z,1.9
2023-03-03T03:32:05.787Z,1.9
2023-03-03T03:33:08.612Z,1.9
2023-03-03T03:34:12.036Z,1.8
2023-03-03T03:35:15.683Z,1.9
2023-03-03T03:36:18.444Z,1.8
2023-03-03T03:37:21.161Z,1.8
2023-03-03T03:38:24.674Z,1.9
2023-03-03T03:39:27.430Z,1.9
2023-03-03T03:40:30.253Z,1.9
2023-03-03T03:41:33.632Z,1.9
2023-03-03T03:42:36.970Z,1.9
2023-03-03T03:43:40.097Z,1.9
2023-03-03T03:44:43.273Z,1.9
2023-03-03T03:45:47.079Z,1.9
2023-03-03T03:46:50.916Z,1.9
2023-03-03T03:47:54.634Z,1.9
2023-03-03T03:48:57.624Z,1.9
2023-03-03T03:50:00.653Z,1.9
2023-03-03T03:51:03.662Z,1.9
2023-03-03T03:52:07.027Z,1.9
2023-03-03T03:53:10.774Z,1.9
2023-03-03T03:54:14.498Z,2
2023-03-03T03:55:17.858Z,1.9
2023-03-03T03:56:20.867Z,1.9
2023-03-03T03:57:27.658Z,2
2023-03-03T03:58:30.768Z,2.1
2023-03-03T03:59:33.835Z,2.1
2023-03-03T04:00:36.907Z,2.1
2023-03-03T04:01:41.100Z,2.1
2023-03-03T04:02:45.802Z,2.1
2023-03-03T04:03:49.170Z,2
2023-03-03T04:04:51.993Z,1.9
2023-03-03T04:05:54.526Z,1.9
2023-03-03T04:06:57.695Z,1.8
2023-03-03T04:08:00.955Z,1.8
2023-03-03T04:09:03.487Z,1.8
2023-03-03T04:10:05.998Z,1.7
2023-03-03T04:11:09.418Z,1.6
2023-03-03T04:12:12.118Z,1.5
2023-03-03T04:13:15.388Z,1.5
2023-03-03T04:14:18.497Z,1.5
2023-03-03T04:15:22.130Z,1.4
2023-03-03T04:16:25.232Z,1.4
2023-03-03T04:17:28.438Z,1.4
2023-03-03T04:18:32.216Z,1.4
2023-03-03T04:19:34.447Z,1.4
2023-03-03T04:20:38.172Z,1.4
2023-03-03T04:21:41.183Z,1.3
2023-03-03T04:22:44.541Z,1.4
2023-03-03T04:23:48.294Z,1.4
2023-03-03T04:24:51.466Z,1.4
2023-03-03T04:25:54.644Z,1.4
2023-03-03T04:26:57.698Z,1.5
2023-03-03T04:28:00.454Z,1.5
2023-03-03T04:29:03.322Z,1.5
2023-03-03T04:30:06.048Z,1.5
2023-03-03T04:31:09.812Z,1.5
2023-03-03T04:32:13.429Z,1.5
2023-03-03T04:33:16.635Z,1.5
2023-03-03T04:34:20.164Z,1.4
2023-03-03T04:35:24.492Z,1.4
2023-03-03T04:36:28.272Z,1.4
2023-03-03T04:37:31.956Z,1.4
2023-03-03T04:38:35.570Z,1.4
2023-03-03T04:39:39.026Z,1.4
2023-03-03T04:40:43.295Z,1.4
2023-03-03T04:41:46.750Z,1.4
2023-03-03T04:42:50.535Z,1.4
2023-03-03T04:43:53.388Z,1.4
2023-03-03T04:44:56.383Z,1.4
2023-03-03T04:45:59.603Z,1.4
2023-03-03T04:47:02.402Z,1.5
2023-03-03T04:48:05.119Z,1.4
2023-03-03T04:49:13.797Z,1.4
2023-03-03T04:50:17.064Z,1.4
2023-03-03T04:51:20.416Z,1.4
2023-03-03T04:52:22.328Z,1.4
2023-03-03T04:53:25.177Z,1.3
2023-03-03T04:54:28.618Z,1.2
2023-03-03T04:55:31.319Z,1.2
2023-03-03T04:56:34.015Z,1.1
2023-03-03T04:57:37.805Z,1.1
2023-03-03T04:58:40.808Z,1.1
2023-03-03T04:59:44.019Z,1.1
2023-03-03T05:00:46.457Z,1.1
2023-03-03T05:01:49.384Z,1.1
2023-03-03T05:02:53.129Z,1.1
2023-03-03T05:03:56.760Z,1.1
2023-03-03T05:05:00.334Z,1.1
2023-03-03T05:06:03.926Z,1.1
2023-03-03T05:07:07.043Z,1.1
2023-03-03T05:08:10.774Z,1.1
2023-03-03T05:09:14.130Z,1
2023-03-03T05:10:17.878Z,0.9
2023-03-03T05:11:21.366Z,0.9
2023-03-03T05:12:24.421Z,0.9
2023-03-03T05:13:27.141Z,0.9
2023-03-03T05:14:30.620Z,0.9
2023-03-03T05:15:33.170Z,0.8
2023-03-03T05:16:36.167Z,0.8
2023-03-03T05:17:39.522Z,0.8
2023-03-03T05:18:42.608Z,0.8
2023-03-03T05:19:45.941Z,0.8
2023-03-03T05:20:49.688Z,0.8
2023-03-03T05:21:54.137Z,0.8
2023-03-03T05:22:56.852Z,0.8
2023-03-03T05:24:00.285Z,0.7
2023-03-03T05:25:03.592Z,0.7
2023-03-03T05:26:06.606Z,0.6
2023-03-03T05:27:09.967Z,0.6
2023-03-03T05:28:12.250Z,0.5
2023-03-03T05:29:15.369Z,0.5
2023-03-03T05:30:18.183Z,0.6
2023-03-03T05:31:21.123Z,0.6
2023-03-03T05:32:25.357Z,0.7
2023-03-03T05:33:28.780Z,0.7
2023-03-03T05:34:31.661Z,0.7
2023-03-03T05:35:35.198Z,0.8
2023-03-03T05:36:38.965Z,0.8
2023-03-03T05:37:42.741Z,0.8
2023-03-03T05:38:46.134Z,0.9
2023-03-03T05:39:49.473Z,0.9
2023-03-03T05:40:52.988Z,0.9
2023-03-03T05:41:56.403Z,0.9
2023-03-03T05:42:59.499Z,0.9
2023-03-03T05:44:02.695Z,0.9
2023-03-03T05:45:06.459Z,0.9
2023-03-03T05:46:10.051Z,0.9
2023-03-03T05:47:13.657Z,0.9
2023-03-03T05:48:17.717Z,0.9
2023-03-03T05:49:20.497Z,0.9
2023-03-03T05:50:23.487Z,0.9
2023-03-03T05:51:27.214Z,0.9
2023-03-03T05:52:30.645Z,0.9
2023-03-03T05:53:34.684Z,0.9
2023-03-03T05:54:37.826Z,0.9
2023-03-03T05:55:41.203Z,0.9
2023-03-03T05:56:43.982Z,0.9
2023-03-03T05:57:46.441Z,0.9
2023-03-03T05:58:49.735Z,0.9
2023-03-03T05:59:53.190Z,0.8
2023-03-03T06:00:56.341Z,0.8
2023-03-03T06:01:59.819Z,0.8
2023-03-03T06:03:03.526Z,0.8
2023-03-03T06:04:06.590Z,0.8
2023-03-03T06:05:09.512Z,0.8
2023-03-03T06:06:12.401Z,0.8
2023-03-03T06:07:15.813Z,0.9
2023-03-03T06:08:19.079Z,0.9
2023-03-03T06:09:22.954Z,0.8
2023-03-03T06:10:26.096Z,0.9
2023-03-03T06:11:29.559Z,0.9
2023-03-03T06:12:32.360Z,0.9
2023-03-03T06:13:35.713Z,0.9
2023-03-03T06:14:38.300Z,0.9
2023-03-03T06:15:42.033Z,0.9
2023-03-03T06:16:45.628Z,0.9
2023-03-03T06:17:49.447Z,0.9
2023-03-03T06:18:51.958Z,0.8
2023-03-03T06:19:55.033Z,0.9
2023-03-03T06:20:58.157Z,0.9
2023-03-03T06:22:02.770Z,0.8
2023-03-03T06:23:06.424Z,0.8
2023-03-03T06:24:09.964Z,0.8
2023-03-03T06:25:13.712Z,0.8
2023-03-03T06:26:16.971Z,0.8
2023-03-03T06:27:20.585Z,0.8
2023-03-03T06:28:23.948Z,0.9
2023-03-03T06:29:28.028Z,0.9
2023-03-03T06:30:30.742Z,0.9
2023-03-03T06:31:34.437Z,0.9
2023-03-03T06:32:37.919Z,0.8
2023-03-03T06:33:41.256Z,0.8
2023-03-03T06:34:44.922Z,0.7
2023-03-03T06:35:48.183Z,0.7
2023-03-03T06:36:51.514Z,0.6
2023-03-03T06:37:54.667Z,0.6
2023-03-03T06:38:57.748Z,0.5
2023-03-03T06:40:01.938Z,0.5
2023-03-03T06:41:05.748Z,0.5
2023-03-03T06:42:08.740Z,0.5
2023-03-03T06:43:10.919Z,0.5
2023-03-03T06:44:13.683Z,0.5
2023-03-03T06:45:16.710Z,0.5
2023-03-03T06:46:20.085Z,0.5
2023-03-03T06:47:22.833Z,0.5
2023-03-03T06:48:25.983Z,0.4
2023-03-03T06:49:29.280Z,0.4
2023-03-03T06:50:32.787Z,0.4
2023-03-03T06:51:36.444Z,0.5
2023-03-03T06:52:39.817Z,0.4
2023-03-03T06:53:42.876Z,0.5
2023-03-03T06:54:45.600Z,0.5
2023-03-03T06:55:48.441Z,0.5
2023-03-03T06:56:52.204Z,0.5
2023-03-03T06:57:55.887Z,0.5
2023-03-03T06:58:58.867Z,0.6
2023-03-03T07:00:01.598Z,0.6
2023-03-03T07:01:04.869Z,0.6
2023-03-03T07:02:08.285Z,0.6
2023-03-03T07:03:10.728Z,0.7
2023-03-03T07:04:14.160Z,0.7
2023-03-03T07:05:16.754Z,0.7
2023-03-03T07:06:19.608Z,0.6
2023-03-03T07:07:22.609Z,0.6
2023-03-03T07:08:25.389Z,0.6
2023-03-03T07:09:28.733Z,0.6
2023-03-03T07:10:31.752Z,0.6
2023-03-03T07:11:35.028Z,0.6
2023-03-03T07:12:39.074Z,0.6
2023-03-03T07:13:41.980Z,0.6
2023-03-03T07:14:45.021Z,0.6
2023-03-03T07:15:47.533Z,0.7
2023-03-03T07:16:50.788Z,0.7
2023-03-03T07:17:54.124Z,0.8
2023-03-03T07:18:57.488Z,0.8
2023-03-03T07:20:00.986Z,0.8
2023-03-03T07:21:04.422Z,0.8
2023-03-03T07:22:07.582Z,0.9
2023-03-03T07:23:10.942Z,0.9
2023-03-03T07:24:14.271Z,0.8
2023-03-03T07:25:17.715Z,0.8
2023-03-03T07:26:20.806Z,0.8
2023-03-03T07:27:24.273Z,0.8
2023-03-03T07:28:28.341Z,0.9
2023-03-03T07:29:31.490Z,0.8
2023-03-03T07:30:35.764Z,0.8
2023-03-03T07:31:38.299Z,0.6
2023-03-03T07:32:41.032Z,0.6
2023-03-03T07:33:43.759Z,0.5
2023-03-03T07:34:46.373Z,0.4
2023-03-03T07:35:50.111Z,0.5
2023-03-03T07:36:53.934Z,0.5
2023-03-03T07:37:57.915Z,0.5
2023-03-03T07:39:01.872Z,0.5
2023-03-03T07:40:05.249Z,0.4
2023-03-03T07:41:08.852Z,0.3
2023-03-03T07:42:12.330Z,0.3
2023-03-03T07:43:16.092Z,0.3
2023-03-03T07:44:20.014Z,0.3
2023-03-03T07:45:23.452Z,0.3
2023-03-03T07:46:26.908Z,0.3
2023-03-03T07:47:30.277Z,0.3
2023-03-03T07:48:32.992Z,0.4
2023-03-03T07:49:36.026Z,0.4
2023-03-03T07:50:39.443Z,0.4
2023-03-03T07:51:43.240Z,0.4
2023-03-03T07:52:46.679Z,0.5
2023-03-03T07:53:50.341Z,0.5
2023-03-03T07:54:53.686Z,0.6
2023-03-03T07:55:56.760Z,0.6
2023-03-03T07:56:59.744Z,0.6
2023-03-03T07:58:03.236Z,0.6
2023-03-03T07:59:06.701Z,0.6
2023-03-03T08:00:10.790Z,0.6
2023-03-03T08:01:14.476Z,0.7
2023-03-03T08:02:17.194Z,0.7
2023-03-03T08:03:20.162Z,0.7
2023-03-03T08:04:24.217Z,0.8
2023-03-03T08:05:28.305Z,0.8
2023-03-03T08:06:31.223Z,0.8
2023-03-03T08:07:34.513Z,0.9
2023-03-03T08:08:37.700Z,0.8
2023-03-03T08:09:40.534Z,0.7
2023-03-03T08:10:45.512Z,0.7
2023-03-03T08:11:49.232Z,0.7
2023-03-03T08:12:51.884Z,0.7
2023-03-03T08:13:55.068Z,0.7
2023-03-03T08:14:58.860Z,0.7
2023-03-03T08:16:03.308Z,0.8
2023-03-03T08:17:06.370Z,0.9
2023-03-03T08:18:09.774Z,0.9
2023-03-03T08:19:13.440Z,0.9
2023-03-03T08:20:16.219Z,0.8
2023-03-03T08:21:19.209Z,0.8
2023-03-03T08:22:22.009Z,0.8
2023-03-03T08:23:25.028Z,0.9
2023-03-03T08:24:27.472Z,0.9
2023-03-03T08:25:31.162Z,1
2023-03-03T08:26:35.167Z,1
2023-03-03T08:27:37.986Z,1
2023-03-03T08:28:41.346Z,1
2023-03-03T08:29:44.150Z,1
2023-03-03T08:30:49.306Z,1.1
2023-03-03T08:31:53.844Z,1
2023-03-03T08:32:57.632Z,1
2023-03-03T08:34:00.167Z,1
2023-03-03T08:35:02.892Z,1
2023-03-03T08:36:05.902Z,1
2023-03-03T08:37:10.306Z,1
2023-03-03T08:38:13.708Z,1
2023-03-03T08:39:17.234Z,0.9
2023-03-03T08:40:21.236Z,0.9
2023-03-03T08:41:24.299Z,1
2023-03-03T08:42:27.021Z,0.9
2023-03-03T08:43:30.313Z,1
2023-03-03T08:44:33.383Z,1
2023-03-03T08:45:36.499Z,1
2023-03-03T08:46:40.471Z,1
2023-03-03T08:47:43.787Z,1
2023-03-03T08:48:47.813Z,1.1
2023-03-03T08:49:51.275Z,1.2
2023-03-03T08:50:54.088Z,1.2
2023-03-03T08:51:57.143Z,1.2
2023-03-03T08:53:00.600Z,1.2
2023-03-03T08:54:04.124Z,1.2
2023-03-03T08:55:10.559Z,1.2
2023-03-03T08:56:13.929Z,1.2
2023-03-03T08:57:17.369Z,1.1
2023-03-03T08:58:36.455Z,1.2
2023-03-03T08:59:40.207Z,1.2
2023-03-03T09:00:43.448Z,1.2
2023-03-03T09:01:47.655Z,1.2
2023-03-03T09:02:51.961Z,1.1
2023-03-03T09:03:55.668Z,1.1
2023-03-03T09:04:59.385Z,1.2
2023-03-03T09:06:02.438Z,1.2
2023-03-03T09:07:05.304Z,1.2
2023-03-03T09:08:08.018Z,1.3
2023-03-03T09:09:11.033Z,1.3
2023-03-03T09:10:14.385Z,1.4
2023-03-03T09:11:17.599Z,1.4
2023-03-03T09:12:20.751Z,1.4
2023-03-03T09:13:23.828Z,1.4
2023-03-03T09:14:26.989Z,1.5
2023-03-03T09:15:30.659Z,1.5
2023-03-03T09:16:34.359Z,1.6
2023-03-03T09:17:38.058Z,1.7
2023-03-03T09:18:42.158Z,1.7
2023-03-03T09:19:45.638Z,1.8
2023-03-03T09:20:48.994Z,1.8
2023-03-03T09:21:52.346Z,1.7
2023-03-03T09:22:55.991Z,1.7
2023-03-03T09:23:59.196Z,1.7
2023-03-03T09:25:02.834Z,1.6
2023-03-03T09:26:06.196Z,1.6
2023-03-03T09:27:08.723Z,1.5
2023-03-03T09:28:12.057Z,1.6
2023-03-03T09:29:15.554Z,1.5
2023-03-03T09:30:18.983Z,1.4
2023-03-03T09:31:22.574Z,1.4
2023-03-03T09:32:26.224Z,1.4
2023-03-03T09:33:30.099Z,1.4
2023-03-03T09:34:33.666Z,1.4
2023-03-03T09:35:36.982Z,1.4
2023-03-03T09:36:40.010Z,1.4
2023-03-03T09:37:42.469Z,1.4
2023-03-03T09:38:45.846Z,1.5
2023-03-03T09:39:48.905Z,1.4
2023-03-03T09:40:52.659Z,1.4
2023-03-03T09:41:55.663Z,1.5
2023-03-03T09:42:59.038Z,1.5
2023-03-03T09:44:01.504Z,1.6
2023-03-03T09:45:05.210Z,1.6
2023-03-03T09:46:08.418Z,1.5
2023-03-03T09:47:11.528Z,1.5
2023-03-03T09:48:15.246Z,1.6
2023-03-03T09:49:18.826Z,1.6
2023-03-03T09:50:22.586Z,1.7
2023-03-03T09:51:25.121Z,1.8
2023-03-03T09:52:28.920Z,1.8
2023-03-03T09:53:32.034Z,1.9
2023-03-03T09:54:35.390Z,1.9
2023-03-03T09:55:39.256Z,2
2023-03-03T09:56:42.047Z,1.9
2023-03-03T09:57:45.574Z,1.8
2023-03-03T09:58:48.840Z,1.8
2023-03-03T09:59:52.183Z,1.8
2023-03-03T10:00:55.543Z,1.8
2023-03-03T10:01:59.091Z,1.9
2023-03-03T10:03:02.587Z,1.9
2023-03-03T10:04:05.951Z,2
2023-03-03T10:05:09.525Z,1.9
2023-03-03T10:06:13.280Z,2
2023-03-03T10:07:16.064Z,2
2023-03-03T10:08:19.555Z,1.9
2023-03-03T10:09:22.618Z,1.9
2023-03-03T10:10:25.327Z,1.9
2023-03-03T10:11:28.411Z,1.9
2023-03-03T10:12:31.242Z,1.8
2023-03-03T10:13:34.979Z,1.8
2023-03-03T10:14:37.978Z,1.8
2023-03-03T10:15:41.136Z,1.8
2023-03-03T10:16:44.582Z,1.8
2023-03-03T10:17:49.084Z,1.8
2023-03-03T10:18:53.559Z,1.8
2023-03-03T10:19:56.725Z,1.8
2023-03-03T10:21:00.507Z,1.8
2023-03-03T10:22:04.584Z,1.7
2023-03-03T10:23:07.958Z,1.8
2023-03-03T10:24:10.770Z,1.8
2023-03-03T10:25:14.220Z,1.9
2023-03-03T10:26:16.668Z,2
2023-03-03T10:27:20.091Z,1.9
2023-03-03T10:28:23.487Z,1.9
2023-03-03T10:29:27.239Z,1.9
2023-03-03T10:31:17.964Z,1.9
2023-03-03T10:32:32.207Z,1.8
2023-03-03T10:33:36.831Z,1.9
2023-03-03T10:34:40.067Z,1.9
2023-03-03T10:36:07.853Z,1.9
2023-03-03T10:37:12.276Z,1.9
2023-03-03T10:38:16.366Z,1.9
2023-03-03T10:39:19.761Z,2
2023-03-03T10:40:23.160Z,2
2023-03-03T10:41:26.526Z,2
2023-03-03T10:42:29.595Z,2
2023-03-03T10:43:34.434Z,2
2023-03-03T10:44:38.170Z,2
2023-03-03T10:45:41.826Z,1.9
2023-03-03T10:46:45.360Z,1.9
2023-03-03T10:47:49.019Z,1.8
2023-03-03T10:48:52.389Z,1.7
2023-03-03T10:49:56.380Z,1.7
2023-03-03T10:51:01.542Z,1.8
2023-03-03T10:52:04.763Z,1.8
2023-03-03T10:53:08.989Z,1.7
2023-03-03T10:54:12.705Z,1.7
2023-03-03T10:55:15.848Z,1.8
2023-03-03T10:56:18.555Z,1.9
2023-03-03T10:57:21.892Z,2
2023-03-03T10:58:25.376Z,2.1
2023-03-03T10:59:28.301Z,2.2
2023-03-03T11:00:31.442Z,2.3
2023-03-03T11:01:35.485Z,2.4
2023-03-03T11:02:39.577Z,2.5
2023-03-03T11:03:42.603Z,2.3
2023-03-03T11:04:46.069Z,2.3
2023-03-03T11:05:49.537Z,2.3
2023-03-03T11:06:53.568Z,2.3
2023-03-03T11:07:56.645Z,2.3
2023-03-03T11:09:02.430Z,2.3
2023-03-03T11:10:05.853Z,2.3
2023-03-03T11:11:09.486Z,2.3
2023-03-03T11:12:12.008Z,2.3
2023-03-03T11:13:15.459Z,2.3
2023-03-03T11:14:18.566Z,2.3
2023-03-03T11:15:21.368Z,2.4
2023-03-03T11:16:24.843Z,2.4
2023-03-03T11:17:28.604Z,2.4
2023-03-03T11:18:32.236Z,2.5
2023-03-03T11:19:36.079Z,2.5
2023-03-03T11:20:38.785Z,2.5
2023-03-03T11:21:42.796Z,2.6
2023-03-03T11:22:45.986Z,2.7
2023-03-03T11:23:49.633Z,2.7
2023-03-03T11:24:53.880Z,2.7
2023-03-03T11:25:57.590Z,2.7
2023-03-03T11:27:01.058Z,2.6
2023-03-03T11:28:04.526Z,2.6
2023-03-03T11:29:07.703Z,2.5
2023-03-03T11:30:11.700Z,2.5
2023-03-03T11:31:15.115Z,2.5
2023-03-03T11:32:18.951Z,2.6
2023-03-03T11:33:22.076Z,2.5
2023-03-03T11:34:24.778Z,2.6
2023-03-03T11:35:28.364Z,2.6
2023-03-03T11:36:35.445Z,2.7
2023-03-03T11:37:38.484Z,2.7
2023-03-03T11:38:41.377Z,2.7
2023-03-03T11:39:44.604Z,2.7
2023-03-03T11:40:48.740Z,2.8
2023-03-03T11:41:52.429Z,2.8
2023-03-03T11:42:54.967Z,2.8
2023-03-03T11:43:57.963Z,2.8
2023-03-03T11:45:01.078Z,2.9
2023-03-03T11:46:05.029Z,2.9
2023-03-03T11:47:08.176Z,2.9
2023-03-03T11:48:10.407Z,3
2023-03-03T11:49:14.423Z,2.9
2023-03-03T11:50:17.005Z,2.9
2023-03-03T11:51:20.853Z,3
2023-03-03T11:52:23.992Z,3
2023-03-03T11:53:26.697Z,2.9
2023-03-03T11:54:29.847Z,2.9
2023-03-03T11:55:33.356Z,2.9
2023-03-03T11:56:37.543Z,2.9
2023-03-03T11:57:40.826Z,3
2023-03-03T11:58:44.500Z,3
2023-03-03T11:59:47.617Z,2.9
2023-03-03T12:00:50.758Z,2.9
2023-03-03T12:01:54.424Z,2.7
2023-03-03T12:02:58.295Z,2.6
2023-03-03T12:04:02.120Z,2.5
2023-03-03T12:05:05.837Z,2.5
2023-03-03T12:06:14.090Z,2.5
2023-03-03T12:07:21.596Z,2.5
2023-03-03T12:08:24.971Z,2.5
2023-03-03T12:09:28.429Z,2.5
2023-03-03T12:10:31.861Z,2.5
2023-03-03T12:11:35.630Z,2.5
2023-03-03T12:12:39.775Z,2.5
2023-03-03T12:13:43.232Z,2.6
2023-03-03T12:14:46.517Z,2.6
2023-03-03T12:15:50.084Z,2.7
2023-03-03T12:16:53.527Z,2.7
2023-03-03T12:17:56.259Z,2.7
2023-03-03T12:18:59.633Z,2.7
2023-03-03T12:20:02.491Z,2.7
2023-03-03T12:21:06.140Z,2.7
2023-03-03T12:22:08.711Z,2.7
2023-03-03T12:23:12.084Z,2.8
2023-03-03T12:24:15.508Z,2.8
2023-03-03T12:25:18.022Z,2.8
2023-03-03T12:26:21.512Z,2.8
2023-03-03T12:27:25.309Z,2.9
2023-03-03T12:28:29.476Z,2.9
2023-03-03T12:29:32.612Z,3
2023-03-03T12:30:36.002Z,3
2023-03-03T12:31:39.526Z,3
2023-03-03T12:32:42.693Z,3.1
2023-03-03T12:33:46.150Z,3.1
2023-03-03T12:34:49.680Z,3.2
2023-03-03T12:35:53.375Z,3.3
2023-03-03T12:36:56.180Z,3.3
2023-03-03T12:37:59.167Z,3.3
2023-03-03T12:39:02.824Z,3.3
2023-03-03T12:40:05.646Z,3.2
2023-03-03T12:41:09.006Z,3.2
2023-03-03T12:42:12.410Z,3.1
2023-03-03T12:43:15.950Z,3.1
2023-03-03T12:44:20.148Z,3.1
2023-03-03T12:45:23.851Z,3.1
2023-03-03T12:46:31.515Z,3.1
2023-03-03T12:47:35.303Z,3.1
2023-03-03T12:48:38.352Z,3.1
2023-03-03T12:50:11.226Z,3.1
2023-03-03T12:51:15.140Z,3.1
2023-03-03T12:52:19.155Z,3.2
2023-03-03T12:53:21.951Z,3.2
2023-03-03T12:54:25.494Z,3.3
2023-03-03T12:55:29.229Z,3.4
2023-03-03T12:56:33.226Z,3.7
2023-03-03T12:57:36.280Z,4.2
2023-03-03T12:58:39.349Z,4.6
2023-03-03T12:59:43.686Z,4.6
2023-03-03T13:00:47.144Z,4.3
2023-03-03T13:01:51.228Z,4.1
2023-03-03T13:02:53.832Z,4
2023-03-03T13:03:58.485Z,3.8
2023-03-03T13:05:01.618Z,3.7
2023-03-03T13:06:04.248Z,3.7
2023-03-03T13:07:07.288Z,3.6
2023-03-03T13:08:10.959Z,3.5
2023-03-03T13:09:14.083Z,3.5
2023-03-03T13:10:17.451Z,3.5
2023-03-03T13:11:20.905Z,3.5
2023-03-03T13:12:24.306Z,3.4
2023-03-03T13:13:27.990Z,3.4
2023-03-03T13:14:30.829Z,3.4
2023-03-03T13:15:55.635Z,3.5
2023-03-03T13:17:01.358Z,3.6
2023-03-03T13:18:04.817Z,3.7
2023-03-03T13:19:07.430Z,3.7
2023-03-03T13:20:10.150Z,3.7
2023-03-03T13:21:13.230Z,3.6
2023-03-03T13:22:16.610Z,3.5
2023-03-03T13:23:19.417Z,3.6
2023-03-03T13:24:23.219Z,3.6
2023-03-03T13:25:26.117Z,3.7
2023-03-03T13:26:33.152Z,3.7
2023-03-03T13:27:36.032Z,3.7
2023-03-03T13:28:38.837Z,3.7
2023-03-03T13:29:41.832Z,3.6
2023-03-03T13:30:46.034Z,3.6
2023-03-03T13:31:49.642Z,3.6
2023-03-03T13:32:53.309Z,3.5
2023-03-03T13:33:56.381Z,3.5
2023-03-03T13:34:59.475Z,3.5
2023-03-03T13:36:02.913Z,3.5
2023-03-03T13:37:06.199Z,3.5
2023-03-03T13:38:09.297Z,3.5
2023-03-03T13:39:12.086Z,3.4
2023-03-03T13:40:15.470Z,3.5
2023-03-03T13:41:18.940Z,3.5
2023-03-03T13:42:22.336Z,3.5
2023-03-03T13:43:25.116Z,3.5
2023-03-03T13:44:28.307Z,3.5
2023-03-03T13:45:32.794Z,3.6
2023-03-03T13:46:37.770Z,3.6
2023-03-03T13:47:40.750Z,3.6
2023-03-03T13:48:43.818Z,3.5
2023-03-03T13:49:49.682Z,3.6
2023-03-03T13:50:53.015Z,3.6
2023-03-03T13:51:56.104Z,3.7
2023-03-03T13:52:59.539Z,3.7
2023-03-03T13:54:02.913Z,3.7
2023-03-03T13:55:06.229Z,3.6
2023-03-03T13:56:09.746Z,3.7
2023-03-03T13:57:13.093Z,3.7
2023-03-03T13:58:16.895Z,3.7
2023-03-03T13:59:19.996Z,3.7
2023-03-03T14:00:22.851Z,3.7
2023-03-03T14:01:26.076Z,3.7
2023-03-03T14:02:30.426Z,3.7
2023-03-03T14:03:33.863Z,3.7
2023-03-03T14:04:37.462Z,3.7
2023-03-03T14:05:40.795Z,3.6
2023-03-03T14:06:43.833Z,3.6
2023-03-03T14:07:46.352Z,3.6
2023-03-03T14:08:49.474Z,3.6
2023-03-03T14:09:52.710Z,3.6
2023-03-03T14:10:56.259Z,3.5
2023-03-03T14:11:59.780Z,3.6
2023-03-03T14:13:03.268Z,3.6
2023-03-03T14:14:06.099Z,3.6
2023-03-03T14:15:09.469Z,3.6
2023-03-03T14:16:12.997Z,3.6
2023-03-03T14:17:17.067Z,3.6
2023-03-03T14:18:21.357Z,3.6
2023-03-03T14:19:24.494Z,3.6
2023-03-03T14:20:27.925Z,3.6
2023-03-03T14:21:31.106Z,3.7
2023-03-03T14:22:34.769Z,3.7
2023-03-03T14:23:37.746Z,3.6
2023-03-03T14:24:40.513Z,3.6
2023-03-03T14:25:43.497Z,3.6
2023-03-03T14:26:47.225Z,3.6
2023-03-03T14:27:50.720Z,3.6
2023-03-03T14:28:53.783Z,3.5
2023-03-03T14:29:56.653Z,3.5
2023-03-03T14:31:03.854Z,3.6
2023-03-03T14:32:06.822Z,3.6
2023-03-03T14:33:09.981Z,3.7
2023-03-03T14:34:14.308Z,3.7
2023-03-03T14:35:17.602Z,3.7
2023-03-03T14:36:20.975Z,3.7
2023-03-03T14:37:24.350Z,3.7
2023-03-03T14:38:27.505Z,3.7
2023-03-03T14:39:30.613Z,3.7